Rousseau, South Dakota
Current Conditions -  °F | °C
As of 12:53 PM on Tuesday 21 Oct 2014 (Local Time) from KPIR Reporting Station
Clear Clear  
Wind Chill: 82°   Ceiling: Unl
Heat Index: 82°   Visibility: 10mi
Dew Point: 42°   Wind: 25mph
Humidity: 24%   Direction: 180°S
Pressure: 29.81"   Gusts: 35mph
Location:  44.3693°N, 100.04°W
Report Text: KPIR 211753Z AUTO 18022G30KT 10SM CLR 28/06 A2981 RMK AO2 PK WND 19032/1743 SLP084 T02780056 10278 20100 58018
Loading
Personal Weather Stations






























Interactive Weather Map
Tropical Storm Tracking
New forecast layout! Learn more

10-Day Weather Forecast

Advertisements
Track Severe Weather on mobile